sensor_id;sensor_type;location;lat;lon;timestamp;temperature;humidity
8269;DHT22;4174;48.304;16.364;2022-12-07T00:03:55;7.00;99.90
8269;DHT22;4174;48.304;16.364;2022-12-07T00:10:00;7.00;99.90
8269;DHT22;4174;48.304;16.364;2022-12-07T00:16:06;6.90;99.90
8269;DHT22;4174;48.304;16.364;2022-12-07T00:22:11;7.00;99.90
8269;DHT22;4174;48.304;16.364;2022-12-07T00:28:15;7.10;99.90
8269;DHT22;4174;48.304;16.364;2022-12-07T00:34:20;7.00;99.90
8269;DHT22;4174;48.304;16.364;2022-12-07T00:40:23;6.80;99.90
8269;DHT22;4174;48.304;16.364;2022-12-07T00:46:26;6.80;99.90
8269;DHT22;4174;48.304;16.364;2022-12-07T00:52:30;7.00;99.90
8269;DHT22;4174;48.304;16.364;2022-12-07T00:58:33;6.90;99.90
8269;DHT22;4174;48.304;16.364;2022-12-07T01:04:38;6.90;99.90
8269;DHT22;4174;48.304;16.364;2022-12-07T01:10:41;6.90;99.90
8269;DHT22;4174;48.304;16.364;2022-12-07T01:16:45;6.80;99.90
8269;DHT22;4174;48.304;16.364;2022-12-07T01:22:49;6.70;99.90
8269;DHT22;4174;48.304;16.364;2022-12-07T01:28:52;6.70;99.90
8269;DHT22;4174;48.304;16.364;2022-12-07T01:34:55;6.80;99.90
8269;DHT22;4174;48.304;16.364;2022-12-07T01:40:59;6.90;99.90
8269;DHT22;4174;48.304;16.364;2022-12-07T01:47:02;6.80;99.90
8269;DHT22;4174;48.304;16.364;2022-12-07T01:53:04;6.80;99.90
8269;DHT22;4174;48.304;16.364;2022-12-07T01:59:07;6.90;99.90
8269;DHT22;4174;48.304;16.364;2022-12-07T02:05:10;6.80;99.90
8269;DHT22;4174;48.304;16.364;2022-12-07T02:11:13;6.80;99.90
8269;DHT22;4174;48.304;16.364;2022-12-07T02:17:21;6.80;99.90
8269;DHT22;4174;48.304;16.364;2022-12-07T02:23:47;6.90;99.90
8269;DHT22;4174;48.304;16.364;2022-12-07T02:29:55;6.80;99.90
8269;DHT22;4174;48.304;16.364;2022-12-07T02:36:06;6.80;99.90
8269;DHT22;4174;48.304;16.364;2022-12-07T02:42:14;6.90;99.90
8269;DHT22;4174;48.304;16.364;2022-12-07T02:48:16;6.90;99.90
8269;DHT22;4174;48.304;16.364;2022-12-07T02:54:18;6.80;99.90
8269;DHT22;4174;48.304;16.364;2022-12-07T03:00:21;6.80;99.90
8269;DHT22;4174;48.304;16.364;2022-12-07T03:06:28;6.80;99.90
8269;DHT22;4174;48.304;16.364;2022-12-07T03:12:32;6.80;99.90
8269;DHT22;4174;48.304;16.364;2022-12-07T03:18:36;6.60;99.90
8269;DHT22;4174;48.304;16.364;2022-12-07T03:24:42;6.60;99.90
8269;DHT22;4174;48.304;16.364;2022-12-07T03:30:49;6.60;99.90
8269;DHT22;4174;48.304;16.364;2022-12-07T03:36:57;6.70;99.90
8269;DHT22;4174;48.304;16.364;2022-12-07T03:43:05;6.80;99.90
8269;DHT22;4174;48.304;16.364;2022-12-07T03:49:15;6.60;99.90
8269;DHT22;4174;48.304;16.364;2022-12-07T03:55:19;6.60;99.90
8269;DHT22;4174;48.304;16.364;2022-12-07T04:01:23;6.70;99.90
8269;DHT22;4174;48.304;16.364;2022-12-07T04:07:26;6.80;99.90
8269;DHT22;4174;48.304;16.364;2022-12-07T04:13:29;6.80;99.90
8269;DHT22;4174;48.304;16.364;2022-12-07T04:19:32;6.60;99.90
8269;DHT22;4174;48.304;16.364;2022-12-07T04:25:35;6.70;99.90
8269;DHT22;4174;48.304;16.364;2022-12-07T04:31:39;6.70;99.90
8269;DHT22;4174;48.304;16.364;2022-12-07T04:37:42;6.50;99.90
8269;DHT22;4174;48.304;16.364;2022-12-07T04:43:45;6.70;99.90
8269;DHT22;4174;48.304;16.364;2022-12-07T04:49:49;6.80;99.90
8269;DHT22;4174;48.304;16.364;2022-12-07T04:55:53;6.80;99.90
8269;DHT22;4174;48.304;16.364;2022-12-07T05:01:57;6.80;99.90
8269;DHT22;4174;48.304;16.364;2022-12-07T05:08:00;6.80;99.90
8269;DHT22;4174;48.304;16.364;2022-12-07T05:14:09;6.90;99.90
8269;DHT22;4174;48.304;16.364;2022-12-07T05:20:12;7.00;99.90
8269;DHT22;4174;48.304;16.364;2022-12-07T05:26:15;7.00;99.90
8269;DHT22;4174;48.304;16.364;2022-12-07T05:32:19;7.00;99.90
8269;DHT22;4174;48.304;16.364;2022-12-07T05:38:23;7.10;99.90
8269;DHT22;4174;48.304;16.364;2022-12-07T05:44:26;7.10;99.90
8269;DHT22;4174;48.304;16.364;2022-12-07T05:50:31;7.10;99.90
8269;DHT22;4174;48.304;16.364;2022-12-07T05:56:34;7.10;99.90
8269;DHT22;4174;48.304;16.364;2022-12-07T06:02:38;7.10;99.90
8269;DHT22;4174;48.304;16.364;2022-12-07T06:08:42;7.00;99.90
8269;DHT22;4174;48.304;16.364;2022-12-07T06:14:47;7.00;99.90
8269;DHT22;4174;48.304;16.364;2022-12-07T06:20:50;7.00;99.90
8269;DHT22;4174;48.304;16.364;2022-12-07T06:26:54;7.00;99.90
8269;DHT22;4174;48.304;16.364;2022-12-07T06:32:57;6.90;99.90
8269;DHT22;4174;48.304;16.364;2022-12-07T06:39:01;6.90;99.90
8269;DHT22;4174;48.304;16.364;2022-12-07T06:45:06;6.80;99.90
8269;DHT22;4174;48.304;16.364;2022-12-07T06:51:10;6.80;99.90
8269;DHT22;4174;48.304;16.364;2022-12-07T06:57:14;6.80;99.90
8269;DHT22;4174;48.304;16.364;2022-12-07T07:03:17;6.70;99.90
8269;DHT22;4174;48.304;16.364;2022-12-07T07:09:20;6.70;99.90
8269;DHT22;4174;48.304;16.364;2022-12-07T07:15:24;6.70;99.90
8269;DHT22;4174;48.304;16.364;2022-12-07T07:21:27;6.70;99.90
8269;DHT22;4174;48.304;16.364;2022-12-07T07:27:31;6.70;99.90
8269;DHT22;4174;48.304;16.364;2022-12-07T07:33:35;6.70;99.90
8269;DHT22;4174;48.304;16.364;2022-12-07T07:39:38;6.80;99.90
8269;DHT22;4174;48.304;16.364;2022-12-07T07:45:43;6.80;99.90
8269;DHT22;4174;48.304;16.364;2022-12-07T07:51:46;6.70;99.90
8269;DHT22;4174;48.304;16.364;2022-12-07T07:57:50;6.60;99.90
8269;DHT22;4174;48.304;16.364;2022-12-07T08:03:53;6.80;99.90
8269;DHT22;4174;48.304;16.364;2022-12-07T08:09:58;6.90;99.90
8269;DHT22;4174;48.304;16.364;2022-12-07T08:16:05;7.20;99.90
8269;DHT22;4174;48.304;16.364;2022-12-07T08:22:08;7.30;99.90
8269;DHT22;4174;48.304;16.364;2022-12-07T08:28:11;7.50;99.90
8269;DHT22;4174;48.304;16.364;2022-12-07T08:34:15;7.50;99.90
8269;DHT22;4174;48.304;16.364;2022-12-07T08:40:18;7.70;99.90
8269;DHT22;4174;48.304;16.364;2022-12-07T08:46:30;8.10;99.90
8269;DHT22;4174;48.304;16.364;2022-12-07T08:52:33;8.20;99.90
8269;DHT22;4174;48.304;16.364;2022-12-07T08:58:35;8.30;99.90
8269;DHT22;4174;48.304;16.364;2022-12-07T09:04:38;8.10;99.90
8269;DHT22;4174;48.304;16.364;2022-12-07T09:10:41;8.30;99.90
8269;DHT22;4174;48.304;16.364;2022-12-07T09:16:45;8.50;99.90
8269;DHT22;4174;48.304;16.364;2022-12-07T09:22:49;9.80;99.90
8269;DHT22;4174;48.304;16.364;2022-12-07T09:28:52;10.80;99.90
8269;DHT22;4174;48.304;16.364;2022-12-07T09:34:57;12.70;99.90
8269;DHT22;4174;48.304;16.364;2022-12-07T09:41:05;13.10;99.50
8269;DHT22;4174;48.304;16.364;2022-12-07T09:47:08;12.90;96.60
8269;DHT22;4174;48.304;16.364;2022-12-07T09:53:23;13.10;95.70
8269;DHT22;4174;48.304;16.364;2022-12-07T09:59:26;12.80;94.80
8269;DHT22;4174;48.304;16.364;2022-12-07T10:05:34;13.20;95.50
8269;DHT22;4174;48.304;16.364;2022-12-07T10:11:33;13.90;91.50
8269;DHT22;4174;48.304;16.364;2022-12-07T10:17:39;13.70;88.70
8269;DHT22;4174;48.304;16.364;2022-12-07T10:23:58;13.30;88.70
8269;DHT22;4174;48.304;16.364;2022-12-07T10:29:48;13.30;89.40
8269;DHT22;4174;48.304;16.364;2022-12-07T10:35:51;13.30;89.50
8269;DHT22;4174;48.304;16.364;2022-12-07T10:41:57;13.80;90.10
8269;DHT22;4174;48.304;16.364;2022-12-07T10:48:11;14.50;83.50
8269;DHT22;4174;48.304;16.364;2022-12-07T10:55:08;14.50;83.50
8269;DHT22;4174;48.304;16.364;2022-12-07T11:01:13;15.40;84.60
8269;DHT22;4174;48.304;16.364;2022-12-07T11:07:22;15.30;75.30
8269;DHT22;4174;48.304;16.364;2022-12-07T11:14:02;14.00;72.00
8269;DHT22;4174;48.304;16.364;2022-12-07T11:20:12;13.30;81.60
8269;DHT22;4174;48.304;16.364;2022-12-07T11:26:27;12.70;79.70
8269;DHT22;4174;48.304;16.364;2022-12-07T11:32:43;10.40;88.80
8269;DHT22;4174;48.304;16.364;2022-12-07T11:38:49;10.40;88.80
8269;DHT22;4174;48.304;16.364;2022-12-07T11:44:53;10.00;92.10
8269;DHT22;4174;48.304;16.364;2022-12-07T11:50:56;10.10;95.30
8269;DHT22;4174;48.304;16.364;2022-12-07T11:56:59;10.60;93.00
8269;DHT22;4174;48.304;16.364;2022-12-07T12:03:15;11.40;92.30
8269;DHT22;4174;48.304;16.364;2022-12-07T12:09:19;11.80;89.10
8269;DHT22;4174;48.304;16.364;2022-12-07T12:15:38;11.50;88.70
8269;DHT22;4174;48.304;16.364;2022-12-07T12:21:55;11.20;90.80
8269;DHT22;4174;48.304;16.364;2022-12-07T12:27:58;12.30;87.60
8269;DHT22;4174;48.304;16.364;2022-12-07T12:33:59;12.70;85.20
8269;DHT22;4174;48.304;16.364;2022-12-07T12:40:24;12.10;84.80
8269;DHT22;4174;48.304;16.364;2022-12-07T12:46:44;12.60;83.50
8269;DHT22;4174;48.304;16.364;2022-12-07T12:53:00;12.60;83.60
8269;DHT22;4174;48.304;16.364;2022-12-07T13:05:18;12.40;84.70
8269;DHT22;4174;48.304;16.364;2022-12-07T13:11:28;12.40;84.80
8269;DHT22;4174;48.304;16.364;2022-12-07T13:17:55;12.40;84.30
8269;DHT22;4174;48.304;16.364;2022-12-07T13:23:58;12.10;83.10
8269;DHT22;4174;48.304;16.364;2022-12-07T13:30:01;11.60;87.20
8269;DHT22;4174;48.304;16.364;2022-12-07T13:36:18;11.00;86.80
8269;DHT22;4174;48.304;16.364;2022-12-07T13:42:11;10.20;91.00
8269;DHT22;4174;48.304;16.364;2022-12-07T13:48:13;10.20;92.40
8269;DHT22;4174;48.304;16.364;2022-12-07T13:54:13;9.60;94.20
8269;DHT22;4174;48.304;16.364;2022-12-07T14:00:18;9.20;94.50
8269;DHT22;4174;48.304;16.364;2022-12-07T14:06:25;9.30;95.60
8269;DHT22;4174;48.304;16.364;2022-12-07T14:12:27;8.90;95.90
8269;DHT22;4174;48.304;16.364;2022-12-07T14:18:36;8.70;97.90
8269;DHT22;4174;48.304;16.364;2022-12-07T14:24:43;8.40;98.70
8269;DHT22;4174;48.304;16.364;2022-12-07T14:30:46;8.10;99.40
8269;DHT22;4174;48.304;16.364;2022-12-07T14:36:50;8.10;99.50
8269;DHT22;4174;48.304;16.364;2022-12-07T14:42:55;8.00;99.90
8269;DHT22;4174;48.304;16.364;2022-12-07T14:48:59;7.80;99.90
8269;DHT22;4174;48.304;16.364;2022-12-07T14:55:03;7.70;99.90
8269;DHT22;4174;48.304;16.364;2022-12-07T15:01:07;7.40;99.90
8269;DHT22;4174;48.304;16.364;2022-12-07T15:07:18;7.30;99.90
8269;DHT22;4174;48.304;16.364;2022-12-07T15:13:19;7.50;99.90
8269;DHT22;4174;48.304;16.364;2022-12-07T15:19:28;7.40;99.90
8269;DHT22;4174;48.304;16.364;2022-12-07T15:25:31;7.30;99.90
8269;DHT22;4174;48.304;16.364;2022-12-07T15:31:35;7.30;99.90
8269;DHT22;4174;48.304;16.364;2022-12-07T15:37:37;7.20;99.90
8269;DHT22;4174;48.304;16.364;2022-12-07T15:43:42;7.10;99.90
8269;DHT22;4174;48.304;16.364;2022-12-07T15:49:50;7.20;99.90
8269;DHT22;4174;48.304;16.364;2022-12-07T15:55:55;7.40;99.90
8269;DHT22;4174;48.304;16.364;2022-12-07T16:01:59;7.40;99.90
8269;DHT22;4174;48.304;16.364;2022-12-07T16:08:05;7.40;99.90
8269;DHT22;4174;48.304;16.364;2022-12-07T16:14:09;7.30;99.90
8269;DHT22;4174;48.304;16.364;2022-12-07T16:20:13;7.40;99.90
8269;DHT22;4174;48.304;16.364;2022-12-07T16:26:17;7.40;99.90
8269;DHT22;4174;48.304;16.364;2022-12-07T16:32:20;7.40;99.90
8269;DHT22;4174;48.304;16.364;2022-12-07T16:38:24;7.40;99.90
8269;DHT22;4174;48.304;16.364;2022-12-07T16:44:27;7.30;99.90
8269;DHT22;4174;48.304;16.364;2022-12-07T16:50:33;7.10;99.90
8269;DHT22;4174;48.304;16.364;2022-12-07T16:56:38;7.10;99.90
8269;DHT22;4174;48.304;16.364;2022-12-07T17:02:41;7.10;99.90
8269;DHT22;4174;48.304;16.364;2022-12-07T17:08:44;6.90;99.90
8269;DHT22;4174;48.304;16.364;2022-12-07T17:14:48;6.80;99.90
8269;DHT22;4174;48.304;16.364;2022-12-07T17:21:01;6.60;99.90
8269;DHT22;4174;48.304;16.364;2022-12-07T17:27:03;6.70;99.90
8269;DHT22;4174;48.304;16.364;2022-12-07T17:33:07;6.70;99.90
8269;DHT22;4174;48.304;16.364;2022-12-07T17:39:11;6.60;99.90
8269;DHT22;4174;48.304;16.364;2022-12-07T17:45:14;6.70;99.90
8269;DHT22;4174;48.304;16.364;2022-12-07T17:51:17;6.70;99.90
8269;DHT22;4174;48.304;16.364;2022-12-07T17:57:28;6.70;99.90
8269;DHT22;4174;48.304;16.364;2022-12-07T18:03:31;6.60;99.90
8269;DHT22;4174;48.304;16.364;2022-12-07T18:09:36;6.80;99.90
8269;DHT22;4174;48.304;16.364;2022-12-07T18:15:39;6.80;99.90
8269;DHT22;4174;48.304;16.364;2022-12-07T18:21:42;6.70;99.90
8269;DHT22;4174;48.304;16.364;2022-12-07T18:27:45;6.80;99.90
8269;DHT22;4174;48.304;16.364;2022-12-07T18:33:49;6.60;99.90
8269;DHT22;4174;48.304;16.364;2022-12-07T18:39:51;6.60;99.90
8269;DHT22;4174;48.304;16.364;2022-12-07T18:45:55;6.70;99.90
8269;DHT22;4174;48.304;16.364;2022-12-07T18:51:59;6.60;99.90
8269;DHT22;4174;48.304;16.364;2022-12-07T18:58:02;6.70;99.90
8269;DHT22;4174;48.304;16.364;2022-12-07T19:04:06;6.70;99.90
8269;DHT22;4174;48.304;16.364;2022-12-07T19:10:10;6.70;99.90
8269;DHT22;4174;48.304;16.364;2022-12-07T19:16:13;6.70;99.90
8269;DHT22;4174;48.304;16.364;2022-12-07T19:22:17;6.80;99.90
8269;DHT22;4174;48.304;16.364;2022-12-07T19:28:19;6.90;99.90
8269;DHT22;4174;48.304;16.364;2022-12-07T19:34:22;6.80;99.90
8269;DHT22;4174;48.304;16.364;2022-12-07T19:40:26;6.80;99.90
8269;DHT22;4174;48.304;16.364;2022-12-07T19:46:30;6.70;99.90
8269;DHT22;4174;48.304;16.364;2022-12-07T19:52:34;6.70;99.90
8269;DHT22;4174;48.304;16.364;2022-12-07T19:58:37;6.60;99.90
8269;DHT22;4174;48.304;16.364;2022-12-07T20:04:41;6.60;99.90
8269;DHT22;4174;48.304;16.364;2022-12-07T20:10:44;6.40;99.90
8269;DHT22;4174;48.304;16.364;2022-12-07T20:16:47;6.50;99.90
8269;DHT22;4174;48.304;16.364;2022-12-07T20:22:50;6.50;99.90
8269;DHT22;4174;48.304;16.364;2022-12-07T20:28:53;6.60;99.90
8269;DHT22;4174;48.304;16.364;2022-12-07T20:34:57;6.60;99.90
8269;DHT22;4174;48.304;16.364;2022-12-07T20:41:02;6.60;99.90
8269;DHT22;4174;48.304;16.364;2022-12-07T20:47:03;6.70;99.90
8269;DHT22;4174;48.304;16.364;2022-12-07T20:53:07;6.60;99.90
8269;DHT22;4174;48.304;16.364;2022-12-07T20:59:11;6.70;99.90
8269;DHT22;4174;48.304;16.364;2022-12-07T21:05:12;6.70;99.90
8269;DHT22;4174;48.304;16.364;2022-12-07T21:11:15;6.60;99.90
8269;DHT22;4174;48.304;16.364;2022-12-07T21:17:17;6.60;99.90
8269;DHT22;4174;48.304;16.364;2022-12-07T21:23:21;6.70;99.90
8269;DHT22;4174;48.304;16.364;2022-12-07T21:29:25;6.70;99.90
8269;DHT22;4174;48.304;16.364;2022-12-07T21:35:29;6.80;99.90
8269;DHT22;4174;48.304;16.364;2022-12-07T21:41:32;6.80;99.90
8269;DHT22;4174;48.304;16.364;2022-12-07T21:47:35;6.70;99.90
8269;DHT22;4174;48.304;16.364;2022-12-07T21:53:40;6.70;99.90
8269;DHT22;4174;48.304;16.364;2022-12-07T21:59:41;6.50;99.90
8269;DHT22;4174;48.304;16.364;2022-12-07T22:05:45;6.30;99.90
8269;DHT22;4174;48.304;16.364;2022-12-07T22:11:48;6.30;99.90
8269;DHT22;4174;48.304;16.364;2022-12-07T22:17:52;6.20;99.90
8269;DHT22;4174;48.304;16.364;2022-12-07T22:23:55;6.00;99.90
8269;DHT22;4174;48.304;16.364;2022-12-07T22:29:59;5.90;99.90
8269;DHT22;4174;48.304;16.364;2022-12-07T22:36:03;5.80;99.90
8269;DHT22;4174;48.304;16.364;2022-12-07T22:42:06;5.80;99.90
8269;DHT22;4174;48.304;16.364;2022-12-07T22:48:10;5.80;99.90
8269;DHT22;4174;48.304;16.364;2022-12-07T22:54:14;5.80;99.90
8269;DHT22;4174;48.304;16.364;2022-12-07T23:00:19;5.70;99.90
8269;DHT22;4174;48.304;16.364;2022-12-07T23:06:24;5.60;99.90
8269;DHT22;4174;48.304;16.364;2022-12-07T23:12:27;5.50;99.90
8269;DHT22;4174;48.304;16.364;2022-12-07T23:18:36;5.50;99.90
8269;DHT22;4174;48.304;16.364;2022-12-07T23:24:39;5.50;99.90
8269;DHT22;4174;48.304;16.364;2022-12-07T23:30:44;5.50;99.90
8269;DHT22;4174;48.304;16.364;2022-12-07T23:36:48;5.50;99.90
8269;DHT22;4174;48.304;16.364;2022-12-07T23:42:51;5.50;99.90
8269;DHT22;4174;48.304;16.364;2022-12-07T23:48:55;5.60;99.90
8269;DHT22;4174;48.304;16.364;2022-12-07T23:54:59;5.60;99.90
